createdAt,value
2022-12-11T00:00:17.849Z,99.80
2022-12-11T00:03:19.921Z,99.90
2022-12-11T00:06:22.981Z,99.70
2022-12-11T00:09:24.680Z,99.70
2022-12-11T00:12:26.243Z,99.70
2022-12-11T00:15:28.605Z,99.70
2022-12-11T00:18:30.188Z,99.70
2022-12-11T00:21:31.965Z,99.70
2022-12-11T00:24:33.693Z,99.70
2022-12-11T00:27:35.508Z,99.60
2022-12-11T00:30:42.389Z,99.80
2022-12-11T00:33:45.110Z,99.70
2022-12-11T00:36:49.550Z,99.70
2022-12-11T00:39:51.630Z,99.90
2022-12-11T00:42:53.175Z,99.70
2022-12-11T00:45:54.890Z,99.70
2022-12-11T00:48:58.075Z,99.80
2022-12-11T00:51:59.688Z,99.70
2022-12-11T00:55:01.246Z,99.70
2022-12-11T00:58:03.334Z,99.80
2022-12-11T01:01:13.815Z,99.10
2022-12-11T01:04:15.405Z,99.80
2022-12-11T01:07:16.937Z,99.80
2022-12-11T01:10:24.454Z,99.80
2022-12-11T01:13:26.025Z,99.10
2022-12-11T01:16:27.616Z,99.80
2022-12-11T01:19:29.208Z,99.80
2022-12-11T01:22:31.299Z,99.80
2022-12-11T01:25:35.058Z,99.90
2022-12-11T01:28:36.992Z,99.90
2022-12-11T01:31:38.719Z,99.90
2022-12-11T01:34:40.283Z,99.80
2022-12-11T01:37:41.877Z,99.90
2022-12-11T01:40:51.252Z,99.90
2022-12-11T01:44:31.013Z,99.90
2022-12-11T01:47:35.399Z,99.30
2022-12-11T01:50:42.111Z,99.90
2022-12-11T01:53:57.980Z,99.80
2022-12-11T01:57:04.247Z,99.90
2022-12-11T02:00:06.448Z,99.90
2022-12-11T02:03:08.530Z,99.70
2022-12-11T02:06:32.157Z,99.90
2022-12-11T02:09:36.189Z,99.90
2022-12-11T02:12:53.017Z,99.80
2022-12-11T02:16:21.205Z,99.10
2022-12-11T02:19:44.228Z,99.50
2022-12-11T02:23:12.450Z,99.10
2022-12-11T02:26:50.403Z,99.00
2022-12-11T02:30:12.226Z,99.10
2022-12-11T02:33:14.907Z,99.60
2022-12-11T02:36:19.205Z,99.70
2022-12-11T02:39:41.830Z,99.60
2022-12-11T02:42:47.430Z,99.90
2022-12-11T02:45:51.505Z,99.60
2022-12-11T02:48:54.063Z,99.70
2022-12-11T02:51:56.674Z,99.70
2022-12-11T02:55:00.808Z,99.70
2022-12-11T02:58:16.112Z,99.60
2022-12-11T03:01:17.725Z,99.00
2022-12-11T03:04:19.427Z,99.70
2022-12-11T03:07:26.164Z,99.70
2022-12-11T03:10:27.721Z,99.70
2022-12-11T03:13:29.359Z,99.80
2022-12-11T03:16:33.691Z,99.70
2022-12-11T03:19:42.800Z,99.80
2022-12-11T03:22:49.978Z,99.30
2022-12-11T03:26:03.235Z,99.70
2022-12-11T03:29:16.619Z,99.00
2022-12-11T03:32:27.543Z,99.00
2022-12-11T03:35:43.803Z,99.80
2022-12-11T03:38:56.061Z,99.00
2022-12-11T03:41:59.690Z,99.10
2022-12-11T03:45:03.343Z,99.70
2022-12-11T03:48:06.259Z,99.70
2022-12-11T03:51:09.148Z,99.70
2022-12-11T03:54:11.294Z,99.70
2022-12-11T03:57:17.663Z,99.60
2022-12-11T04:00:21.710Z,99.70
2022-12-11T04:03:23.390Z,99.70
2022-12-11T04:06:24.996Z,99.60
2022-12-11T04:09:26.555Z,99.80
2022-12-11T04:12:28.119Z,99.70
2022-12-11T04:15:29.649Z,99.50
2022-12-11T04:18:49.841Z,99.80
2022-12-11T04:22:10.271Z,99.10
2022-12-11T04:25:12.180Z,99.00
2022-12-11T04:28:13.943Z,99.90
2022-12-11T04:31:18.873Z,99.90
2022-12-11T04:34:20.573Z,99.90
2022-12-11T04:37:22.096Z,99.90
2022-12-11T04:40:24.003Z,99.70
2022-12-11T04:43:25.593Z,99.70
2022-12-11T04:46:27.264Z,99.60
2022-12-11T04:49:28.825Z,99.70
2022-12-11T04:52:30.602Z,99.70
2022-12-11T04:55:32.122Z,99.50
2022-12-11T04:58:33.918Z,99.80
2022-12-11T05:01:35.585Z,99.60
2022-12-11T05:04:41.494Z,99.80
2022-12-11T05:07:43.409Z,99.80
2022-12-11T05:10:49.967Z,99.70
2022-12-11T05:13:52.146Z,99.60
2022-12-11T05:16:53.788Z,99.70
2022-12-11T05:19:55.306Z,99.70
2022-12-11T05:22:56.893Z,99.60
2022-12-11T05:26:04.098Z,99.60
2022-12-11T05:29:05.803Z,99.00
2022-12-11T05:32:07.422Z,99.40
2022-12-11T05:35:09.952Z,99.60
2022-12-11T05:38:11.849Z,99.60
2022-12-11T05:41:17.257Z,99.60
2022-12-11T05:44:18.800Z,99.70
2022-12-11T05:47:21.061Z,99.60
2022-12-11T05:50:22.613Z,99.90
2022-12-11T05:53:24.399Z,99.70
2022-12-11T05:56:28.526Z,99.60
2022-12-11T05:59:30.087Z,99.70
2022-12-11T06:02:31.773Z,99.90
2022-12-11T06:05:38.387Z,99.60
2022-12-11T06:08:40.207Z,99.80
2022-12-11T06:11:41.780Z,99.70
2022-12-11T06:14:43.444Z,99.80
2022-12-11T06:17:44.983Z,99.60
2022-12-11T06:20:46.589Z,99.70
2022-12-11T06:23:49.605Z,99.80
2022-12-11T06:26:51.211Z,99.90
2022-12-11T06:29:52.728Z,99.70
2022-12-11T06:32:54.417Z,99.70
2022-12-11T06:35:56.784Z,99.80
2022-12-11T06:38:58.413Z,99.90
2022-12-11T06:42:00.000Z,99.80
2022-12-11T06:45:02.010Z,99.80
2022-12-11T06:48:04.181Z,99.70
2022-12-11T06:51:08.082Z,99.90
2022-12-11T06:54:09.641Z,99.70
2022-12-11T06:57:11.528Z,99.90
2022-12-11T07:00:13.981Z,99.90
2022-12-11T07:03:15.551Z,99.50
2022-12-11T07:06:17.302Z,99.80
2022-12-11T07:09:19.076Z,99.80
2022-12-11T07:12:21.082Z,99.40
2022-12-11T07:15:22.616Z,99.90
2022-12-11T07:18:24.204Z,99.90
2022-12-11T07:21:25.933Z,99.80
2022-12-11T07:24:27.549Z,99.90
2022-12-11T07:27:29.327Z,99.80
2022-12-11T07:30:31.061Z,99.80
2022-12-11T07:33:32.720Z,99.80
2022-12-11T07:36:34.961Z,99.90
2022-12-11T07:39:36.597Z,99.90
2022-12-11T07:42:41.480Z,99.80
2022-12-11T07:45:47.576Z,99.90
2022-12-11T07:48:49.802Z,99.80
2022-12-11T07:51:51.385Z,99.90
2022-12-11T07:54:53.076Z,99.90
2022-12-11T07:57:54.628Z,99.90
2022-12-11T08:00:56.431Z,99.90
2022-12-11T08:03:58.208Z,99.90
2022-12-11T08:06:59.972Z,99.70
2022-12-11T08:10:01.940Z,99.90
2022-12-11T08:13:05.442Z,99.90
2022-12-11T08:16:09.210Z,99.90
2022-12-11T08:19:14.493Z,99.90
2022-12-11T08:22:16.215Z,99.90
2022-12-11T08:25:17.760Z,99.90
2022-12-11T08:28:19.314Z,99.90
2022-12-11T08:31:24.643Z,99.80
2022-12-11T08:34:26.275Z,99.20
2022-12-11T08:37:29.489Z,99.80
2022-12-11T08:40:31.068Z,99.90
2022-12-11T08:43:34.324Z,99.80
2022-12-11T08:46:35.997Z,99.90
2022-12-11T08:49:37.711Z,99.80
2022-12-11T08:52:39.359Z,99.90
2022-12-11T08:55:41.754Z,99.70
2022-12-11T08:58:44.599Z,99.90
2022-12-11T09:01:46.157Z,99.80
2022-12-11T09:04:47.720Z,99.90
2022-12-11T09:07:49.743Z,99.90
2022-12-11T09:10:51.357Z,99.40
2022-12-11T09:13:53.399Z,99.90
2022-12-11T09:16:54.962Z,99.90
2022-12-11T09:19:56.621Z,99.80
2022-12-11T09:22:58.175Z,99.80
2022-12-11T09:26:03.280Z,99.80
2022-12-11T09:29:06.092Z,99.90
2022-12-11T09:32:07.984Z,99.70
2022-12-11T09:35:10.078Z,99.20
2022-12-11T09:38:12.111Z,99.70
2022-12-11T09:41:23.026Z,99.70
2022-12-11T09:44:45.819Z,99.90
2022-12-11T09:47:52.501Z,99.10
2022-12-11T09:50:55.408Z,99.90
2022-12-11T09:54:01.048Z,99.70
2022-12-11T09:57:18.930Z,99.70
2022-12-11T10:00:29.442Z,99.10
2022-12-11T10:03:36.877Z,99.90
2022-12-11T10:06:50.626Z,99.90
2022-12-11T10:10:07.639Z,99.00
2022-12-11T10:13:28.116Z,99.00
2022-12-11T10:16:35.726Z,99.00
2022-12-11T10:19:40.796Z,99.80
2022-12-11T10:22:43.046Z,99.80
2022-12-11T10:26:07.917Z,99.80
2022-12-11T10:29:14.768Z,99.70
2022-12-11T10:32:24.450Z,99.70
2022-12-11T10:35:28.792Z,99.90
2022-12-11T10:38:38.670Z,98.90
2022-12-11T10:41:43.477Z,99.70
2022-12-11T10:45:02.802Z,99.80
2022-12-11T10:48:11.222Z,99.00
2022-12-11T10:51:12.931Z,99.60
2022-12-11T10:54:19.912Z,99.60
2022-12-11T10:57:32.195Z,98.80
2022-12-11T11:00:40.310Z,99.60
2022-12-11T11:03:51.560Z,99.60
2022-12-11T11:07:39.263Z,99.60
2022-12-11T11:11:20.415Z,99.40
2022-12-11T11:14:25.324Z,98.80
2022-12-11T11:17:32.010Z,99.40
2022-12-11T11:20:36.243Z,99.40
2022-12-11T11:23:45.496Z,99.30
2022-12-11T11:30:23.241Z,99.60
2022-12-11T11:33:25.419Z,98.80
2022-12-11T11:36:29.027Z,99.90
2022-12-11T11:39:38.729Z,99.50
2022-12-11T11:42:45.574Z,99.40
2022-12-11T11:45:55.592Z,99.20
2022-12-11T11:49:03.887Z,99.70
2022-12-11T11:52:16.644Z,99.10
2022-12-11T11:55:55.566Z,99.20
2022-12-11T11:59:21.775Z,98.40
2022-12-11T12:02:23.687Z,98.40
2022-12-11T12:05:44.781Z,98.70
2022-12-11T12:09:03.179Z,99.90
2022-12-11T12:12:38.409Z,98.40
2022-12-11T12:15:58.893Z,99.30
2022-12-11T12:19:32.985Z,98.60
2022-12-11T12:22:40.442Z,99.50
2022-12-11T12:25:51.582Z,98.60
2022-12-11T12:29:20.917Z,99.40
2022-12-11T12:32:34.320Z,99.40
2022-12-11T12:35:38.374Z,98.60
2022-12-11T12:38:50.032Z,99.30
2022-12-11T12:42:18.473Z,99.40
2022-12-11T12:45:32.913Z,98.70
2022-12-11T12:48:34.896Z,98.50
2022-12-11T12:51:37.980Z,99.10
2022-12-11T12:54:42.864Z,99.20
2022-12-11T12:58:05.388Z,99.40
2022-12-11T13:01:14.088Z,99.60
2022-12-11T13:04:55.474Z,99.20
2022-12-11T13:08:00.932Z,98.40
2022-12-11T13:11:06.810Z,99.20
2022-12-11T13:14:33.247Z,99.20
2022-12-11T13:17:38.066Z,98.40
2022-12-11T13:20:50.906Z,99.20
2022-12-11T13:23:52.817Z,99.20
2022-12-11T13:26:55.156Z,99.10
2022-12-11T13:30:22.485Z,99.20
2022-12-11T13:33:25.544Z,98.40
2022-12-11T13:36:36.021Z,99.10
2022-12-11T13:39:39.251Z,98.30
2022-12-11T13:42:49.989Z,99.00
2022-12-11T13:45:53.340Z,99.20
2022-12-11T13:49:00.720Z,99.30
2022-12-11T13:52:02.750Z,99.00
2022-12-11T13:55:21.191Z,99.10
2022-12-11T13:58:23.524Z,99.00
2022-12-11T14:01:29.272Z,99.10
2022-12-11T14:04:33.961Z,99.20
2022-12-11T14:07:40.734Z,99.20
2022-12-11T14:10:42.309Z,99.10
2022-12-11T14:13:45.472Z,99.00
2022-12-11T14:16:50.011Z,99.10
2022-12-11T14:19:53.353Z,99.00
2022-12-11T14:23:15.873Z,99.20
2022-12-11T14:26:40.304Z,99.50
2022-12-11T14:29:42.125Z,98.00
2022-12-11T14:32:45.504Z,99.00
2022-12-11T14:35:48.521Z,99.00
2022-12-11T14:38:55.833Z,98.90
2022-12-11T14:42:07.679Z,99.20
2022-12-11T14:45:38.155Z,99.20
2022-12-11T14:48:47.998Z,98.40
2022-12-11T14:51:51.565Z,99.10
2022-12-11T14:54:59.905Z,99.10
2022-12-11T14:58:14.987Z,99.20
2022-12-11T15:01:28.791Z,99.30
2022-12-11T15:04:32.757Z,99.10
2022-12-11T15:07:34.558Z,99.00
2022-12-11T15:10:40.936Z,99.40
2022-12-11T15:13:56.398Z,99.10
2022-12-11T15:16:59.267Z,99.20
2022-12-11T15:20:08.877Z,99.20
2022-12-11T15:23:15.520Z,99.00
2022-12-11T15:26:31.949Z,99.60
2022-12-11T15:29:39.090Z,99.10
2022-12-11T15:32:40.856Z,99.10
2022-12-11T15:35:57.027Z,99.10
2022-12-11T15:38:58.620Z,99.30
2022-12-11T15:42:00.185Z,99.00
2022-12-11T15:45:04.848Z,99.20
2022-12-11T15:48:08.675Z,99.20
2022-12-11T15:51:13.707Z,99.00
2022-12-11T15:54:15.229Z,98.90
2022-12-11T15:57:25.878Z,99.20
2022-12-11T16:00:28.112Z,98.30
2022-12-11T16:03:29.706Z,99.20
2022-12-11T16:06:31.230Z,99.10
2022-12-11T16:09:34.558Z,99.20
2022-12-11T16:12:36.181Z,98.80
2022-12-11T16:15:46.021Z,99.10
2022-12-11T16:18:47.645Z,98.30
2022-12-11T16:21:49.478Z,99.10
2022-12-11T16:24:54.877Z,98.40
2022-12-11T16:27:57.913Z,99.10
2022-12-11T16:30:59.492Z,99.00
2022-12-11T16:34:01.074Z,99.10
2022-12-11T16:37:02.894Z,99.10
2022-12-11T16:40:06.558Z,99.10
2022-12-11T16:43:08.755Z,98.80
2022-12-11T16:46:10.360Z,99.40
2022-12-11T16:49:12.159Z,99.20
2022-12-11T16:52:17.648Z,99.00
2022-12-11T16:55:23.664Z,99.10
2022-12-11T16:58:25.211Z,99.10
2022-12-11T17:01:27.103Z,99.00
2022-12-11T17:04:28.764Z,99.10
2022-12-11T17:07:32.465Z,99.00
2022-12-11T17:10:34.134Z,99.30
2022-12-11T17:13:36.476Z,99.50
2022-12-11T17:16:38.173Z,99.00
2022-12-11T17:19:39.926Z,99.00
2022-12-11T17:22:41.693Z,99.30
2022-12-11T17:25:45.202Z,99.10
2022-12-11T17:28:46.915Z,99.10
2022-12-11T17:31:48.442Z,99.10
2022-12-11T17:34:50.424Z,99.10
2022-12-11T17:37:52.128Z,99.10
2022-12-11T17:40:54.230Z,99.20
2022-12-11T17:43:55.909Z,99.30
2022-12-11T17:47:07.527Z,99.10
2022-12-11T17:50:12.687Z,99.10
2022-12-11T17:53:18.546Z,99.00
2022-12-11T17:56:20.176Z,98.00
2022-12-11T17:59:21.698Z,99.00
2022-12-11T18:02:23.517Z,98.90
2022-12-11T18:05:25.344Z,98.80
2022-12-11T18:08:30.630Z,99.00
2022-12-11T18:11:32.623Z,99.00
2022-12-11T18:14:34.619Z,99.00
2022-12-11T18:17:39.571Z,99.10
2022-12-11T18:20:41.186Z,99.60
2022-12-11T18:23:42.855Z,99.00
2022-12-11T18:26:44.808Z,99.10
2022-12-11T18:29:46.388Z,99.30
2022-12-11T18:32:48.652Z,98.90
2022-12-11T18:35:51.531Z,98.90
2022-12-11T18:38:54.663Z,98.90
2022-12-11T18:42:24.331Z,98.90
2022-12-11T18:45:17.930Z,98.50
2022-12-11T18:48:19.502Z,98.90
2022-12-11T18:51:25.218Z,98.80
2022-12-11T18:54:26.852Z,98.90
2022-12-11T18:57:28.453Z,98.80
2022-12-11T19:00:29.985Z,98.80
2022-12-11T19:03:31.596Z,98.70
2022-12-11T19:06:35.441Z,99.10
2022-12-11T19:09:38.473Z,98.80
2022-12-11T19:12:42.829Z,98.80
2022-12-11T19:15:44.526Z,98.80
2022-12-11T19:18:49.466Z,98.80
2022-12-11T19:21:51.110Z,99.00
2022-12-11T19:24:52.680Z,98.70
2022-12-11T19:27:56.736Z,98.80
2022-12-11T19:30:59.123Z,98.90
2022-12-11T19:34:01.244Z,98.90
2022-12-11T19:37:02.910Z,98.80
2022-12-11T19:40:04.934Z,98.80
2022-12-11T19:43:06.629Z,98.50
2022-12-11T19:46:09.916Z,98.70
2022-12-11T19:49:12.487Z,98.70
2022-12-11T19:52:14.003Z,98.60
2022-12-11T19:55:15.918Z,98.90
2022-12-11T19:58:17.727Z,98.70
2022-12-11T20:01:30.078Z,98.70
2022-12-11T20:04:31.839Z,98.00
2022-12-11T20:07:33.383Z,98.60
2022-12-11T20:10:36.933Z,98.70
2022-12-11T20:13:40.466Z,98.80
2022-12-11T20:20:04.539Z,98.60
2022-12-11T20:23:07.944Z,98.40
2022-12-11T20:26:18.834Z,98.70
2022-12-11T20:29:22.416Z,98.80
2022-12-11T20:32:24.382Z,99.90
2022-12-11T20:35:30.285Z,98.20
2022-12-11T20:38:34.579Z,98.70
2022-12-11T20:41:36.307Z,98.70
2022-12-11T20:44:38.059Z,98.70
2022-12-11T20:47:42.706Z,98.70
2022-12-11T20:50:44.345Z,98.70
2022-12-11T20:53:45.980Z,98.80
2022-12-11T20:56:47.663Z,98.60
2022-12-11T20:59:49.547Z,99.10
2022-12-11T21:02:51.619Z,98.50
2022-12-11T21:05:53.267Z,98.70
2022-12-11T21:08:54.956Z,98.70
2022-12-11T21:12:02.345Z,98.80
2022-12-11T21:15:04.861Z,98.80
2022-12-11T21:18:07.859Z,98.50
2022-12-11T21:21:09.665Z,98.70
2022-12-11T21:24:17.011Z,98.70
2022-12-11T21:27:18.898Z,98.70
2022-12-11T21:30:20.929Z,98.70
2022-12-11T21:33:22.475Z,98.70
2022-12-11T21:36:24.355Z,98.80
2022-12-11T21:39:33.576Z,98.60
2022-12-11T21:42:37.742Z,98.80
2022-12-11T21:49:00.941Z,98.60
2022-12-11T21:52:02.934Z,98.30
2022-12-11T21:55:05.694Z,98.50
2022-12-11T21:58:07.612Z,98.40
2022-12-11T22:01:22.258Z,98.50
2022-12-11T22:04:24.081Z,97.60
2022-12-11T22:07:25.977Z,98.30
2022-12-11T22:10:28.668Z,98.70
2022-12-11T22:13:30.542Z,98.40
2022-12-11T22:16:32.825Z,98.30
2022-12-11T22:19:34.393Z,98.40
2022-12-11T22:22:35.899Z,98.40
2022-12-11T22:25:37.839Z,98.50
2022-12-11T22:28:39.446Z,98.70
2022-12-11T22:31:40.963Z,98.50
2022-12-11T22:34:42.546Z,98.50
2022-12-11T22:37:44.088Z,98.60
2022-12-11T22:40:46.059Z,98.60
2022-12-11T22:43:47.656Z,98.30
2022-12-11T22:46:50.436Z,98.40
2022-12-11T22:49:52.433Z,98.10
2022-12-11T22:52:53.985Z,98.40
2022-12-11T22:55:56.595Z,98.30
2022-12-11T22:58:58.487Z,98.30
2022-12-11T23:02:02.337Z,98.30
2022-12-11T23:05:07.808Z,98.40
2022-12-11T23:08:09.452Z,98.60
2022-12-11T23:11:14.071Z,98.40
2022-12-11T23:14:19.686Z,99.00
2022-12-11T23:17:24.201Z,98.60
2022-12-11T23:20:26.206Z,99.20
2022-12-11T23:23:35.545Z,98.60
2022-12-11T23:26:37.991Z,98.70
2022-12-11T23:29:39.593Z,98.60
2022-12-11T23:32:41.107Z,98.80
2022-12-11T23:35:42.679Z,98.60
2022-12-11T23:38:49.536Z,98.60
2022-12-11T23:41:54.329Z,98.80
2022-12-11T23:44:55.953Z,98.50
2022-12-11T23:47:57.549Z,98.60
2022-12-11T23:51:00.838Z,98.50
2022-12-11T23:54:02.961Z,98.60
2022-12-11T23:57:04.557Z,98.70
